sensor_id;sensor_type;location;lat;lon;timestamp;pressure;altitude;pressure_sealevel;temperature;humidity
16595;BME280;8410;52.532;13.336;2022-08-19T00:01:57;100512.00;;;23.92;94.92
16595;BME280;8410;52.532;13.336;2022-08-19T00:04:30;100506.84;;;24.27;92.73
16595;BME280;8410;52.532;13.336;2022-08-19T00:07:00;100511.31;;;24.61;91.03
16595;BME280;8410;52.532;13.336;2022-08-19T00:09:29;100513.47;;;24.34;91.74
16595;BME280;8410;52.532;13.336;2022-08-19T00:11:57;100520.88;;;24.45;90.31
16595;BME280;8410;52.532;13.336;2022-08-19T00:14:28;100524.41;;;24.63;89.69
16595;BME280;8410;52.532;13.336;2022-08-19T00:16:59;100518.31;;;24.43;91.49
16595;BME280;8410;52.532;13.336;2022-08-19T00:19:28;100513.94;;;24.25;92.58
16595;BME280;8410;52.532;13.336;2022-08-19T00:21:55;100512.34;;;24.04;94.15
16595;BME280;8410;52.532;13.336;2022-08-19T00:24:25;100517.72;;;24.56;90.08
16595;BME280;8410;52.532;13.336;2022-08-19T00:26:56;100520.66;;;24.67;88.71
16595;BME280;8410;52.532;13.336;2022-08-19T00:29:44;100513.94;;;24.25;91.75
16595;BME280;8410;52.532;13.336;2022-08-19T00:32:18;100516.72;;;23.84;94.32
16595;BME280;8410;52.532;13.336;2022-08-19T00:34:46;100524.97;;;23.37;95.17
16595;BME280;8410;52.532;13.336;2022-08-19T00:37:14;100529.06;;;23.24;96.83
16595;BME280;8410;52.532;13.336;2022-08-19T00:39:43;100521.47;;;23.76;94.97
16595;BME280;8410;52.532;13.336;2022-08-19T00:42:15;100519.22;;;23.87;93.29
16595;BME280;8410;52.532;13.336;2022-08-19T00:44:43;100512.41;;;23.63;93.84
16595;BME280;8410;52.532;13.336;2022-08-19T00:47:11;100510.56;;;23.85;93.62
16595;BME280;8410;52.532;13.336;2022-08-19T00:49:45;100503.72;;;23.81;93.51
16595;BME280;8410;52.532;13.336;2022-08-19T00:52:25;100492.19;;;23.65;94.56
16595;BME280;8410;52.532;13.336;2022-08-19T00:54:58;100503.06;;;23.76;93.06
16595;BME280;8410;52.532;13.336;2022-08-19T00:57:32;100495.41;;;23.32;97.27
16595;BME280;8410;52.532;13.336;2022-08-19T01:00:06;100500.53;;;23.15;99.92
16595;BME280;8410;52.532;13.336;2022-08-19T01:02:35;100492.81;;;23.11;100.00
16595;BME280;8410;52.532;13.336;2022-08-19T01:05:09;100505.44;;;22.81;100.00
16595;BME280;8410;52.532;13.336;2022-08-19T01:07:39;100505.69;;;23.18;99.17
16595;BME280;8410;52.532;13.336;2022-08-19T01:10:14;100503.16;;;22.74;100.00
16595;BME280;8410;52.532;13.336;2022-08-19T01:12:46;100494.06;;;23.23;98.32
16595;BME280;8410;52.532;13.336;2022-08-19T01:15:20;100505.44;;;22.81;100.00
16595;BME280;8410;52.532;13.336;2022-08-19T01:17:50;100508.13;;;23.41;98.62
16595;BME280;8410;52.532;13.336;2022-08-19T01:20:21;100516.72;;;24.22;92.13
16595;BME280;8410;52.532;13.336;2022-08-19T01:22:54;100513.09;;;24.25;91.06
16595;BME280;8410;52.532;13.336;2022-08-19T01:25:30;100522.72;;;24.24;93.91
16595;BME280;8410;52.532;13.336;2022-08-19T01:27:59;100530.38;;;23.14;95.88
16595;BME280;8410;52.532;13.336;2022-08-19T01:30:37;100528.19;;;22.60;100.00
16595;BME280;8410;52.532;13.336;2022-08-19T01:33:10;100528.69;;;23.71;98.83
16595;BME280;8410;52.532;13.336;2022-08-19T01:35:40;100530.41;;;24.48;90.64
16595;BME280;8410;52.532;13.336;2022-08-19T01:38:20;100529.75;;;24.06;93.96
16595;BME280;8410;52.532;13.336;2022-08-19T01:40:48;100533.88;;;23.93;95.08
16595;BME280;8410;52.532;13.336;2022-08-19T01:43:16;100532.78;;;24.16;92.36
16595;BME280;8410;52.532;13.336;2022-08-19T01:45:46;100535.66;;;24.84;88.86
16595;BME280;8410;52.532;13.336;2022-08-19T01:48:14;100528.25;;;24.56;90.64
16595;BME280;8410;52.532;13.336;2022-08-19T01:50:42;100533.69;;;24.87;88.50
16595;BME280;8410;52.532;13.336;2022-08-19T01:53:12;100531.53;;;24.96;87.97
16595;BME280;8410;52.532;13.336;2022-08-19T01:55:42;100541.41;;;24.01;93.76
16595;BME280;8410;52.532;13.336;2022-08-19T01:58:16;100550.91;;;23.84;95.60
16595;BME280;8410;52.532;13.336;2022-08-19T02:00:45;100554.91;;;24.12;93.99
16595;BME280;8410;52.532;13.336;2022-08-19T02:03:14;100544.03;;;24.56;91.47
16595;BME280;8410;52.532;13.336;2022-08-19T02:05:44;100556.34;;;24.55;91.71
16595;BME280;8410;52.532;13.336;2022-08-19T02:08:13;100541.72;;;24.67;90.69
16595;BME280;8410;52.532;13.336;2022-08-19T02:10:43;100528.50;;;24.69;91.16
16595;BME280;8410;52.532;13.336;2022-08-19T02:13:12;100525.69;;;23.60;98.46
16595;BME280;8410;52.532;13.336;2022-08-19T02:15:41;100513.47;;;23.40;100.00
16595;BME280;8410;52.532;13.336;2022-08-19T02:18:09;100489.53;;;23.85;96.22
16595;BME280;8410;52.532;13.336;2022-08-19T02:20:39;100470.03;;;24.45;92.34
16595;BME280;8410;52.532;13.336;2022-08-19T02:23:09;100459.38;;;24.11;93.37
16595;BME280;8410;52.532;13.336;2022-08-19T02:25:45;100446.63;;;23.07;100.00
16595;BME280;8410;52.532;13.336;2022-08-19T02:28:14;100435.16;;;23.67;97.97
16595;BME280;8410;52.532;13.336;2022-08-19T02:30:46;100414.09;;;24.05;94.54
16595;BME280;8410;52.532;13.336;2022-08-19T02:33:15;100418.50;;;24.04;94.47
16595;BME280;8410;52.532;13.336;2022-08-19T02:35:45;100417.47;;;23.51;96.58
16595;BME280;8410;52.532;13.336;2022-08-19T02:38:14;100416.75;;;23.67;97.57
16595;BME280;8410;52.532;13.336;2022-08-19T02:40:59;100408.41;;;24.14;94.14
16595;BME280;8410;52.532;13.336;2022-08-19T02:43:29;100415.97;;;24.20;93.30
16595;BME280;8410;52.532;13.336;2022-08-19T02:46:01;100413.88;;;24.09;95.16
16595;BME280;8410;52.532;13.336;2022-08-19T02:48:29;100426.00;;;23.75;95.07
16595;BME280;8410;52.532;13.336;2022-08-19T02:50:59;100423.56;;;23.33;97.25
16595;BME280;8410;52.532;13.336;2022-08-19T02:53:28;100411.69;;;22.85;99.94
16595;BME280;8410;52.532;13.336;2022-08-19T02:55:57;100427.69;;;22.38;100.00
16595;BME280;8410;52.532;13.336;2022-08-19T02:58:25;100424.81;;;22.44;100.00
16595;BME280;8410;52.532;13.336;2022-08-19T03:00:56;100439.13;;;22.78;100.00
16595;BME280;8410;52.532;13.336;2022-08-19T03:03:24;100447.81;;;21.93;100.00
16595;BME280;8410;52.532;13.336;2022-08-19T03:06:03;100440.81;;;22.58;100.00
16595;BME280;8410;52.532;13.336;2022-08-19T03:08:31;100439.63;;;22.01;100.00
16595;BME280;8410;52.532;13.336;2022-08-19T03:11:00;100442.81;;;21.87;100.00
16595;BME280;8410;52.532;13.336;2022-08-19T03:13:28;100440.72;;;21.95;100.00
16595;BME280;8410;52.532;13.336;2022-08-19T03:15:56;100445.22;;;21.92;100.00
16595;BME280;8410;52.532;13.336;2022-08-19T03:18:24;100447.53;;;21.99;100.00
16595;BME280;8410;52.532;13.336;2022-08-19T03:20:53;100450.00;;;22.04;100.00
16595;BME280;8410;52.532;13.336;2022-08-19T03:23:22;100436.59;;;22.34;100.00
16595;BME280;8410;52.532;13.336;2022-08-19T03:25:52;100430.25;;;22.17;100.00
16595;BME280;8410;52.532;13.336;2022-08-19T03:28:42;100416.31;;;22.15;100.00
16595;BME280;8410;52.532;13.336;2022-08-19T03:31:20;100424.06;;;22.20;100.00
16595;BME280;8410;52.532;13.336;2022-08-19T03:34:09;100435.78;;;22.10;100.00
16595;BME280;8410;52.532;13.336;2022-08-19T03:36:39;100427.47;;;22.00;100.00
16595;BME280;8410;52.532;13.336;2022-08-19T03:39:09;100436.53;;;21.46;100.00
16595;BME280;8410;52.532;13.336;2022-08-19T03:41:41;100422.16;;;21.32;100.00
16595;BME280;8410;52.532;13.336;2022-08-19T03:44:12;100424.34;;;21.45;100.00
16595;BME280;8410;52.532;13.336;2022-08-19T03:46:45;100422.59;;;20.97;100.00
16595;BME280;8410;52.532;13.336;2022-08-19T03:49:14;100429.63;;;20.95;100.00
16595;BME280;8410;52.532;13.336;2022-08-19T03:51:46;100439.84;;;20.77;100.00
16595;BME280;8410;52.532;13.336;2022-08-19T03:54:18;100438.13;;;21.01;100.00
16595;BME280;8410;52.532;13.336;2022-08-19T03:56:48;100438.06;;;21.03;100.00
16595;BME280;8410;52.532;13.336;2022-08-19T03:59:23;100444.56;;;20.66;100.00
16595;BME280;8410;52.532;13.336;2022-08-19T04:01:54;100439.16;;;20.72;100.00
16595;BME280;8410;52.532;13.336;2022-08-19T04:04:23;100439.25;;;20.94;100.00
16595;BME280;8410;52.532;13.336;2022-08-19T04:06:56;100433.06;;;20.97;100.00
16595;BME280;8410;52.532;13.336;2022-08-19T04:09:25;100425.03;;;21.01;100.00
16595;BME280;8410;52.532;13.336;2022-08-19T04:11:56;100433.16;;;20.93;100.00
16595;BME280;8410;52.532;13.336;2022-08-19T04:14:28;100433.91;;;20.97;100.00
16595;BME280;8410;52.532;13.336;2022-08-19T04:16:58;100434.31;;;21.10;100.00
16595;BME280;8410;52.532;13.336;2022-08-19T04:19:29;100431.66;;;21.35;100.00
16595;BME280;8410;52.532;13.336;2022-08-19T04:21:57;100431.16;;;21.49;100.00
16595;BME280;8410;52.532;13.336;2022-08-19T04:24:26;100445.97;;;21.73;100.00
16595;BME280;8410;52.532;13.336;2022-08-19T04:26:54;100456.63;;;21.69;100.00
16595;BME280;8410;52.532;13.336;2022-08-19T04:29:25;100453.78;;;21.26;100.00
16595;BME280;8410;52.532;13.336;2022-08-19T04:31:55;100458.91;;;21.54;100.00
16595;BME280;8410;52.532;13.336;2022-08-19T04:34:25;100462.75;;;21.68;100.00
16595;BME280;8410;52.532;13.336;2022-08-19T04:36:56;100455.09;;;21.85;100.00
16595;BME280;8410;52.532;13.336;2022-08-19T04:39:28;100446.66;;;22.22;100.00
16595;BME280;8410;52.532;13.336;2022-08-19T04:42:11;100446.22;;;22.11;100.00
16595;BME280;8410;52.532;13.336;2022-08-19T04:44:58;100441.34;;;22.02;100.00
16595;BME280;8410;52.532;13.336;2022-08-19T04:47:27;100443.81;;;22.05;100.00
16595;BME280;8410;52.532;13.336;2022-08-19T04:50:15;100462.97;;;21.38;100.00
16595;BME280;8410;52.532;13.336;2022-08-19T04:52:43;100461.88;;;21.20;100.00
16595;BME280;8410;52.532;13.336;2022-08-19T04:55:12;100464.72;;;21.63;100.00
16595;BME280;8410;52.532;13.336;2022-08-19T04:57:41;100465.56;;;21.40;100.00
16595;BME280;8410;52.532;13.336;2022-08-19T05:00:11;100463.09;;;21.58;100.00
16595;BME280;8410;52.532;13.336;2022-08-19T05:02:39;100459.00;;;21.75;100.00
16595;BME280;8410;52.532;13.336;2022-08-19T05:05:08;100452.91;;;21.74;100.00
16595;BME280;8410;52.532;13.336;2022-08-19T05:07:36;100458.38;;;21.68;100.00
16595;BME280;8410;52.532;13.336;2022-08-19T05:10:05;100450.25;;;21.98;100.00
16595;BME280;8410;52.532;13.336;2022-08-19T05:12:34;100446.44;;;21.83;100.00
16595;BME280;8410;52.532;13.336;2022-08-19T05:15:04;100436.63;;;21.88;100.00
16595;BME280;8410;52.532;13.336;2022-08-19T05:17:34;100440.72;;;21.73;100.00
16595;BME280;8410;52.532;13.336;2022-08-19T05:20:06;100440.31;;;21.39;100.00
16595;BME280;8410;52.532;13.336;2022-08-19T05:22:52;100427.41;;;21.56;100.00
16595;BME280;8410;52.532;13.336;2022-08-19T05:25:21;100423.66;;;21.85;100.00
16595;BME280;8410;52.532;13.336;2022-08-19T05:27:51;100416.00;;;22.45;100.00
16595;BME280;8410;52.532;13.336;2022-08-19T05:33:09;100423.44;;;22.35;100.00
16595;BME280;8410;52.532;13.336;2022-08-19T05:35:38;100420.00;;;22.11;100.00
16595;BME280;8410;52.532;13.336;2022-08-19T05:38:08;100417.69;;;22.26;100.00
16595;BME280;8410;52.532;13.336;2022-08-19T05:40:37;100426.66;;;21.98;100.00
16595;BME280;8410;52.532;13.336;2022-08-19T05:43:07;100426.41;;;22.48;100.00
16595;BME280;8410;52.532;13.336;2022-08-19T05:45:39;100416.41;;;22.36;100.00
16595;BME280;8410;52.532;13.336;2022-08-19T05:48:10;100420.53;;;22.82;100.00
16595;BME280;8410;52.532;13.336;2022-08-19T05:50:40;100421.19;;;22.46;100.00
16595;BME280;8410;52.532;13.336;2022-08-19T05:53:08;100419.94;;;22.55;100.00
16595;BME280;8410;52.532;13.336;2022-08-19T05:55:36;100425.13;;;22.14;100.00
16595;BME280;8410;52.532;13.336;2022-08-19T05:58:06;100420.34;;;22.87;100.00
16595;BME280;8410;52.532;13.336;2022-08-19T06:00:34;100416.78;;;22.88;100.00
16595;BME280;8410;52.532;13.336;2022-08-19T06:03:02;100430.28;;;23.78;96.81
16595;BME280;8410;52.532;13.336;2022-08-19T06:05:41;100440.63;;;23.81;96.95
16595;BME280;8410;52.532;13.336;2022-08-19T06:08:19;100441.09;;;23.72;97.78
16595;BME280;8410;52.532;13.336;2022-08-19T06:11:15;100440.47;;;23.84;95.54
16595;BME280;8410;52.532;13.336;2022-08-19T06:13:44;100450.97;;;23.27;100.00
16595;BME280;8410;52.532;13.336;2022-08-19T06:16:14;100448.00;;;23.35;99.84
16595;BME280;8410;52.532;13.336;2022-08-19T06:18:46;100451.50;;;22.74;100.00
16595;BME280;8410;52.532;13.336;2022-08-19T06:21:15;100436.88;;;22.89;100.00
16595;BME280;8410;52.532;13.336;2022-08-19T06:23:43;100430.19;;;22.82;100.00
16595;BME280;8410;52.532;13.336;2022-08-19T06:26:12;100433.97;;;22.97;100.00
16595;BME280;8410;52.532;13.336;2022-08-19T06:28:41;100427.53;;;23.23;100.00
16595;BME280;8410;52.532;13.336;2022-08-19T06:31:12;100430.53;;;23.15;100.00
16595;BME280;8410;52.532;13.336;2022-08-19T06:33:41;100435.66;;;23.37;100.00
16595;BME280;8410;52.532;13.336;2022-08-19T06:36:22;100439.72;;;23.05;100.00
16595;BME280;8410;52.532;13.336;2022-08-19T06:38:54;100438.19;;;23.39;100.00
16595;BME280;8410;52.532;13.336;2022-08-19T06:41:23;100450.13;;;23.27;100.00
16595;BME280;8410;52.532;13.336;2022-08-19T06:43:52;100450.44;;;23.59;100.00
16595;BME280;8410;52.532;13.336;2022-08-19T06:46:23;100452.13;;;23.60;100.00
16595;BME280;8410;52.532;13.336;2022-08-19T06:48:52;100462.78;;;23.94;98.65
16595;BME280;8410;52.532;13.336;2022-08-19T06:51:23;100456.50;;;24.16;96.61
16595;BME280;8410;52.532;13.336;2022-08-19T06:53:55;100465.06;;;24.02;96.73
16595;BME280;8410;52.532;13.336;2022-08-19T06:56:26;100467.03;;;23.59;98.40
16595;BME280;8410;52.532;13.336;2022-08-19T06:58:57;100477.28;;;23.84;97.75
16595;BME280;8410;52.532;13.336;2022-08-19T07:01:25;100475.69;;;24.18;96.48
16595;BME280;8410;52.532;13.336;2022-08-19T07:03:53;100484.81;;;23.73;98.14
16595;BME280;8410;52.532;13.336;2022-08-19T07:06:25;100489.25;;;24.28;95.38
16595;BME280;8410;52.532;13.336;2022-08-19T07:09:13;100491.66;;;23.77;96.18
16595;BME280;8410;52.532;13.336;2022-08-19T07:11:45;100491.34;;;23.64;97.71
16595;BME280;8410;52.532;13.336;2022-08-19T07:14:16;100485.75;;;23.72;99.22
16595;BME280;8410;52.532;13.336;2022-08-19T07:16:47;100470.94;;;23.50;98.18
16595;BME280;8410;52.532;13.336;2022-08-19T07:19:18;100473.88;;;23.44;100.00
16595;BME280;8410;52.532;13.336;2022-08-19T07:21:50;100463.06;;;22.90;100.00
16595;BME280;8410;52.532;13.336;2022-08-19T07:24:20;100469.53;;;23.23;100.00
16595;BME280;8410;52.532;13.336;2022-08-19T07:26:52;100471.78;;;23.32;100.00
16595;BME280;8410;52.532;13.336;2022-08-19T07:29:22;100459.19;;;23.20;100.00
16595;BME280;8410;52.532;13.336;2022-08-19T07:31:55;100470.31;;;23.45;100.00
16595;BME280;8410;52.532;13.336;2022-08-19T07:34:28;100477.81;;;22.93;100.00
16595;BME280;8410;52.532;13.336;2022-08-19T07:36:58;100481.94;;;23.40;100.00
16595;BME280;8410;52.532;13.336;2022-08-19T07:39:30;100490.03;;;23.35;100.00
16595;BME280;8410;52.532;13.336;2022-08-19T07:42:02;100494.41;;;23.16;100.00
16595;BME280;8410;52.532;13.336;2022-08-19T07:44:33;100498.13;;;23.49;100.00
16595;BME280;8410;52.532;13.336;2022-08-19T07:47:02;100505.13;;;23.69;99.63
16595;BME280;8410;52.532;13.336;2022-08-19T07:49:31;100511.47;;;23.26;100.00
16595;BME280;8410;52.532;13.336;2022-08-19T07:52:05;100510.75;;;23.81;100.00
16595;BME280;8410;52.532;13.336;2022-08-19T07:54:37;100505.34;;;23.84;99.95
16595;BME280;8410;52.532;13.336;2022-08-19T07:57:06;100502.16;;;24.15;95.55
16595;BME280;8410;52.532;13.336;2022-08-19T07:59:35;100503.81;;;24.35;96.75
16595;BME280;8410;52.532;13.336;2022-08-19T08:02:03;100501.00;;;25.26;91.41
16595;BME280;8410;52.532;13.336;2022-08-19T08:04:31;100503.75;;;25.41;88.57
16595;BME280;8410;52.532;13.336;2022-08-19T08:07:19;100513.97;;;25.47;88.48
16595;BME280;8410;52.532;13.336;2022-08-19T08:10:07;100517.03;;;25.55;88.14
16595;BME280;8410;52.532;13.336;2022-08-19T08:12:46;100513.69;;;25.36;89.58
16595;BME280;8410;52.532;13.336;2022-08-19T08:15:35;100518.16;;;25.51;88.91
16595;BME280;8410;52.532;13.336;2022-08-19T08:18:09;100528.38;;;25.57;88.09
16595;BME280;8410;52.532;13.336;2022-08-19T08:20:37;100529.75;;;25.64;87.71
16595;BME280;8410;52.532;13.336;2022-08-19T08:23:06;100523.47;;;25.83;87.05
16595;BME280;8410;52.532;13.336;2022-08-19T08:25:55;100534.09;;;25.32;89.13
16595;BME280;8410;52.532;13.336;2022-08-19T08:28:26;100541.34;;;25.44;88.68
16595;BME280;8410;52.532;13.336;2022-08-19T08:30:57;100539.69;;;25.59;88.06
16595;BME280;8410;52.532;13.336;2022-08-19T08:33:28;100531.53;;;25.30;89.43
16595;BME280;8410;52.532;13.336;2022-08-19T08:36:01;100543.91;;;25.28;90.10
16595;BME280;8410;52.532;13.336;2022-08-19T08:38:31;100543.72;;;25.49;88.80
16595;BME280;8410;52.532;13.336;2022-08-19T08:41:15;100542.50;;;25.56;88.41
16595;BME280;8410;52.532;13.336;2022-08-19T08:43:49;100545.22;;;25.88;86.42
16595;BME280;8410;52.532;13.336;2022-08-19T08:46:24;100540.38;;;25.96;86.36
16595;BME280;8410;52.532;13.336;2022-08-19T08:49:06;100543.72;;;25.66;87.35
16595;BME280;8410;52.532;13.336;2022-08-19T08:51:43;100550.63;;;25.85;87.15
16595;BME280;8410;52.532;13.336;2022-08-19T08:54:20;100545.75;;;25.77;87.24
16595;BME280;8410;52.532;13.336;2022-08-19T08:56:52;100542.31;;;26.08;85.79
16595;BME280;8410;52.532;13.336;2022-08-19T08:59:28;100544.88;;;25.77;87.00
16595;BME280;8410;52.532;13.336;2022-08-19T09:01:59;100554.09;;;25.69;86.66
16595;BME280;8410;52.532;13.336;2022-08-19T09:04:28;100548.22;;;25.47;88.76
16595;BME280;8410;52.532;13.336;2022-08-19T09:07:12;100557.63;;;25.68;87.76
16595;BME280;8410;52.532;13.336;2022-08-19T09:10:11;100551.56;;;25.84;86.97
16595;BME280;8410;52.532;13.336;2022-08-19T09:13:04;100556.19;;;26.12;85.79
16595;BME280;8410;52.532;13.336;2022-08-19T09:15:43;100557.03;;;26.12;84.63
16595;BME280;8410;52.532;13.336;2022-08-19T09:18:13;100550.03;;;25.80;86.65
16595;BME280;8410;52.532;13.336;2022-08-19T09:20:46;100545.47;;;26.31;85.31
16595;BME280;8410;52.532;13.336;2022-08-19T09:23:14;100547.59;;;26.08;85.36
16595;BME280;8410;52.532;13.336;2022-08-19T09:25:43;100534.81;;;26.16;85.81
16595;BME280;8410;52.532;13.336;2022-08-19T09:28:11;100530.03;;;26.71;83.21
16595;BME280;8410;52.532;13.336;2022-08-19T09:30:48;100529.22;;;26.23;86.28
16595;BME280;8410;52.532;13.336;2022-08-19T09:33:18;100528.25;;;26.55;84.06
16595;BME280;8410;52.532;13.336;2022-08-19T09:35:46;100528.09;;;26.27;85.21
16595;BME280;8410;52.532;13.336;2022-08-19T09:38:20;100529.28;;;26.37;83.97
16595;BME280;8410;52.532;13.336;2022-08-19T09:40:49;100521.84;;;26.59;84.18
16595;BME280;8410;52.532;13.336;2022-08-19T09:43:17;100525.81;;;26.52;83.54
16595;BME280;8410;52.532;13.336;2022-08-19T09:46:00;100528.91;;;26.59;83.61
16595;BME280;8410;52.532;13.336;2022-08-19T09:48:28;100522.34;;;26.96;82.58
16595;BME280;8410;52.532;13.336;2022-08-19T09:51:03;100520.16;;;26.43;84.76
16595;BME280;8410;52.532;13.336;2022-08-19T09:53:31;100517.88;;;26.52;84.54
16595;BME280;8410;52.532;13.336;2022-08-19T09:56:01;100517.94;;;26.35;85.26
16595;BME280;8410;52.532;13.336;2022-08-19T09:58:30;100524.00;;;26.53;83.39
16595;BME280;8410;52.532;13.336;2022-08-19T10:01:01;100520.66;;;26.95;82.18
16595;BME280;8410;52.532;13.336;2022-08-19T10:03:32;100522.03;;;26.87;82.25
16595;BME280;8410;52.532;13.336;2022-08-19T10:06:03;100525.31;;;26.76;82.06
16595;BME280;8410;52.532;13.336;2022-08-19T10:08:43;100528.00;;;26.44;84.07
16595;BME280;8410;52.532;13.336;2022-08-19T10:11:19;100531.06;;;26.52;82.97
16595;BME280;8410;52.532;13.336;2022-08-19T10:14:05;100528.31;;;26.38;83.56
16595;BME280;8410;52.532;13.336;2022-08-19T10:16:35;100529.91;;;26.72;82.71
16595;BME280;8410;52.532;13.336;2022-08-19T10:19:05;100529.28;;;27.13;81.24
16595;BME280;8410;52.532;13.336;2022-08-19T10:21:33;100524.50;;;25.47;87.41
16595;BME280;8410;52.532;13.336;2022-08-19T10:24:04;100526.56;;;24.72;92.57
16595;BME280;8410;52.532;13.336;2022-08-19T10:26:39;100528.34;;;24.72;94.06
16595;BME280;8410;52.532;13.336;2022-08-19T10:29:08;100535.72;;;24.65;93.45
16595;BME280;8410;52.532;13.336;2022-08-19T10:31:36;100528.03;;;24.78;92.88
16595;BME280;8410;52.532;13.336;2022-08-19T10:34:24;100525.81;;;24.70;95.50
16595;BME280;8410;52.532;13.336;2022-08-19T10:36:55;100520.81;;;25.34;92.40
16595;BME280;8410;52.532;13.336;2022-08-19T10:39:29;100514.97;;;25.78;89.14
16595;BME280;8410;52.532;13.336;2022-08-19T10:42:08;100522.03;;;25.44;89.03
16595;BME280;8410;52.532;13.336;2022-08-19T10:44:37;100525.72;;;24.89;92.38
16595;BME280;8410;52.532;13.336;2022-08-19T10:47:05;100520.34;;;24.56;94.31
16595;BME280;8410;52.532;13.336;2022-08-19T10:49:51;100525.56;;;24.38;96.44
16595;BME280;8410;52.532;13.336;2022-08-19T10:52:38;100528.94;;;24.23;97.45
16595;BME280;8410;52.532;13.336;2022-08-19T10:55:19;100524.47;;;24.06;98.62
16595;BME280;8410;52.532;13.336;2022-08-19T10:58:12;100526.84;;;24.30;97.95
16595;BME280;8410;52.532;13.336;2022-08-19T11:00:41;100525.28;;;24.45;97.36
16595;BME280;8410;52.532;13.336;2022-08-19T11:03:10;100532.75;;;24.71;94.81
16595;BME280;8410;52.532;13.336;2022-08-19T11:05:38;100530.50;;;24.27;96.70
16595;BME280;8410;52.532;13.336;2022-08-19T11:08:08;100532.84;;;24.14;98.89
16595;BME280;8410;52.532;13.336;2022-08-19T11:10:51;100532.16;;;24.83;95.08
16595;BME280;8410;52.532;13.336;2022-08-19T11:13:22;100542.91;;;24.96;93.43
16595;BME280;8410;52.532;13.336;2022-08-19T11:15:59;100533.84;;;25.02;92.41
16595;BME280;8410;52.532;13.336;2022-08-19T11:18:34;100540.97;;;24.65;94.84
16595;BME280;8410;52.532;13.336;2022-08-19T11:21:12;100543.56;;;24.48;94.74
16595;BME280;8410;52.532;13.336;2022-08-19T11:23:40;100547.69;;;24.34;95.93
16595;BME280;8410;52.532;13.336;2022-08-19T11:26:09;100547.03;;;24.48;95.61
16595;BME280;8410;52.532;13.336;2022-08-19T11:28:38;100542.50;;;24.52;94.08
16595;BME280;8410;52.532;13.336;2022-08-19T11:31:11;100547.00;;;24.67;94.34
16595;BME280;8410;52.532;13.336;2022-08-19T11:33:39;100547.69;;;24.34;94.81
16595;BME280;8410;52.532;13.336;2022-08-19T11:36:14;100548.19;;;24.24;95.92
16595;BME280;8410;52.532;13.336;2022-08-19T11:38:43;100554.75;;;24.15;95.81
16595;BME280;8410;52.532;13.336;2022-08-19T11:41:11;100550.03;;;24.40;94.59
16595;BME280;8410;52.532;13.336;2022-08-19T11:43:40;100550.25;;;24.55;94.69
16595;BME280;8410;52.532;13.336;2022-08-19T11:46:12;100552.88;;;24.55;93.63
16595;BME280;8410;52.532;13.336;2022-08-19T11:48:41;100559.72;;;24.21;96.06
16595;BME280;8410;52.532;13.336;2022-08-19T11:51:13;100554.72;;;24.34;95.44
16595;BME280;8410;52.532;13.336;2022-08-19T11:53:42;100557.94;;;24.59;94.26
16595;BME280;8410;52.532;13.336;2022-08-19T11:56:11;100560.41;;;24.80;92.42
16595;BME280;8410;52.532;13.336;2022-08-19T11:58:40;100559.66;;;24.95;91.61
16595;BME280;8410;52.532;13.336;2022-08-19T12:01:12;100572.72;;;25.14;92.02
16595;BME280;8410;52.532;13.336;2022-08-19T12:03:42;100567.13;;;24.68;92.41
16595;BME280;8410;52.532;13.336;2022-08-19T12:06:18;100567.34;;;25.17;91.23
16595;BME280;8410;52.532;13.336;2022-08-19T12:08:46;100569.97;;;25.00;91.79
16595;BME280;8410;52.532;13.336;2022-08-19T12:11:15;100568.56;;;25.10;90.89
16595;BME280;8410;52.532;13.336;2022-08-19T12:13:44;100575.06;;;25.38;89.09
16595;BME280;8410;52.532;13.336;2022-08-19T12:16:16;100571.81;;;25.33;88.44
16595;BME280;8410;52.532;13.336;2022-08-19T12:18:45;100583.38;;;25.30;88.68
16595;BME280;8410;52.532;13.336;2022-08-19T12:21:14;100584.28;;;25.12;89.36
16595;BME280;8410;52.532;13.336;2022-08-19T12:23:43;100587.88;;;25.28;87.95
16595;BME280;8410;52.532;13.336;2022-08-19T12:26:13;100584.22;;;25.13;87.64
16595;BME280;8410;52.532;13.336;2022-08-19T12:28:41;100583.25;;;24.62;91.16
16595;BME280;8410;52.532;13.336;2022-08-19T12:31:10;100580.03;;;24.92;89.13
16595;BME280;8410;52.532;13.336;2022-08-19T12:33:40;100582.84;;;25.23;88.58
16595;BME280;8410;52.532;13.336;2022-08-19T12:36:12;100574.44;;;25.83;86.21
16595;BME280;8410;52.532;13.336;2022-08-19T12:38:41;100570.38;;;25.60;86.42
16595;BME280;8410;52.532;13.336;2022-08-19T12:41:13;100580.97;;;25.25;87.42
16595;BME280;8410;52.532;13.336;2022-08-19T12:43:42;100577.03;;;25.34;87.06
16595;BME280;8410;52.532;13.336;2022-08-19T12:46:11;100586.25;;;25.25;87.20
16595;BME280;8410;52.532;13.336;2022-08-19T12:48:42;100585.56;;;25.22;88.12
16595;BME280;8410;52.532;13.336;2022-08-19T12:51:14;100579.41;;;24.86;89.62
16595;BME280;8410;52.532;13.336;2022-08-19T12:53:45;100575.47;;;24.59;91.92
16595;BME280;8410;52.532;13.336;2022-08-19T12:56:13;100582.84;;;25.23;88.82
16595;BME280;8410;52.532;13.336;2022-08-19T12:58:48;100578.16;;;25.11;87.76
16595;BME280;8410;52.532;13.336;2022-08-19T13:01:20;100573.50;;;24.81;90.20
16595;BME280;8410;52.532;13.336;2022-08-19T13:03:49;100579.41;;;24.31;93.42
16595;BME280;8410;52.532;13.336;2022-08-19T13:06:20;100570.50;;;24.34;92.92
16595;BME280;8410;52.532;13.336;2022-08-19T13:08:49;100572.72;;;24.62;90.89
16595;BME280;8410;52.532;13.336;2022-08-19T13:11:22;100575.50;;;24.76;90.13
16595;BME280;8410;52.532;13.336;2022-08-19T13:13:52;100577.78;;;24.48;91.35
16595;BME280;8410;52.532;13.336;2022-08-19T13:16:23;100584.31;;;24.58;90.52